sensor_id;sensor_type;location;lat;lon;timestamp;P1;durP1;ratioP1;P2;durP2;ratioP2
4986;SDS011;12674;51.500;7.552;2022-10-31T00:00:47;15.57;;;6.40;;
4986;SDS011;12674;51.500;7.552;2022-10-31T00:02:50;11.43;;;5.60;;
4986;SDS011;12674;51.500;7.552;2022-10-31T00:04:53;10.43;;;4.95;;
4986;SDS011;12674;51.500;7.552;2022-10-31T00:06:56;20.00;;;6.40;;
4986;SDS011;12674;51.500;7.552;2022-10-31T00:08:59;11.98;;;6.03;;
4986;SDS011;12674;51.500;7.552;2022-10-31T00:11:07;12.68;;;5.68;;
4986;SDS011;12674;51.500;7.552;2022-10-31T00:13:13;9.77;;;6.28;;
4986;SDS011;12674;51.500;7.552;2022-10-31T00:15:17;18.60;;;5.88;;
4986;SDS011;12674;51.500;7.552;2022-10-31T00:17:20;15.52;;;6.47;;
4986;SDS011;12674;51.500;7.552;2022-10-31T00:19:23;14.68;;;6.57;;
4986;SDS011;12674;51.500;7.552;2022-10-31T00:21:34;15.20;;;5.32;;
4986;SDS011;12674;51.500;7.552;2022-10-31T00:23:37;11.63;;;5.50;;
4986;SDS011;12674;51.500;7.552;2022-10-31T00:25:41;12.82;;;5.75;;
4986;SDS011;12674;51.500;7.552;2022-10-31T00:27:44;10.80;;;6.22;;
4986;SDS011;12674;51.500;7.552;2022-10-31T00:29:48;10.90;;;5.47;;
4986;SDS011;12674;51.500;7.552;2022-10-31T00:31:51;15.95;;;5.70;;
4986;SDS011;12674;51.500;7.552;2022-10-31T00:33:54;17.63;;;5.97;;
4986;SDS011;12674;51.500;7.552;2022-10-31T00:36:00;13.75;;;6.22;;
4986;SDS011;12674;51.500;7.552;2022-10-31T00:38:03;15.50;;;5.78;;
4986;SDS011;12674;51.500;7.552;2022-10-31T00:40:07;9.18;;;5.45;;
4986;SDS011;12674;51.500;7.552;2022-10-31T00:42:11;14.10;;;5.95;;
4986;SDS011;12674;51.500;7.552;2022-10-31T00:44:16;10.65;;;6.22;;
4986;SDS011;12674;51.500;7.552;2022-10-31T00:46:21;20.60;;;6.53;;
4986;SDS011;12674;51.500;7.552;2022-10-31T00:48:24;12.52;;;5.60;;
4986;SDS011;12674;51.500;7.552;2022-10-31T00:50:28;12.15;;;5.35;;
4986;SDS011;12674;51.500;7.552;2022-10-31T00:52:31;27.25;;;5.75;;
4986;SDS011;12674;51.500;7.552;2022-10-31T00:54:34;12.82;;;5.65;;
4986;SDS011;12674;51.500;7.552;2022-10-31T00:56:37;13.13;;;6.05;;
4986;SDS011;12674;51.500;7.552;2022-10-31T00:58:40;17.35;;;6.47;;
4986;SDS011;12674;51.500;7.552;2022-10-31T01:00:43;19.65;;;6.38;;
4986;SDS011;12674;51.500;7.552;2022-10-31T01:02:52;15.90;;;5.63;;
4986;SDS011;12674;51.500;7.552;2022-10-31T01:04:55;11.85;;;5.68;;
4986;SDS011;12674;51.500;7.552;2022-10-31T01:06:58;13.68;;;5.32;;
4986;SDS011;12674;51.500;7.552;2022-10-31T01:09:01;10.30;;;4.97;;
4986;SDS011;12674;51.500;7.552;2022-10-31T01:11:05;19.35;;;5.47;;
4986;SDS011;12674;51.500;7.552;2022-10-31T01:13:09;10.48;;;5.70;;
4986;SDS011;12674;51.500;7.552;2022-10-31T01:15:15;15.90;;;6.30;;
4986;SDS011;12674;51.500;7.552;2022-10-31T01:17:19;14.25;;;5.85;;
4986;SDS011;12674;51.500;7.552;2022-10-31T01:19:23;18.85;;;5.93;;
4986;SDS011;12674;51.500;7.552;2022-10-31T01:21:29;10.27;;;4.93;;
4986;SDS011;12674;51.500;7.552;2022-10-31T01:23:33;14.15;;;6.50;;
4986;SDS011;12674;51.500;7.552;2022-10-31T01:25:36;14.98;;;5.45;;
4986;SDS011;12674;51.500;7.552;2022-10-31T01:27:40;8.73;;;5.95;;
4986;SDS011;12674;51.500;7.552;2022-10-31T01:29:44;11.05;;;6.03;;
4986;SDS011;12674;51.500;7.552;2022-10-31T01:31:47;14.85;;;6.90;;
4986;SDS011;12674;51.500;7.552;2022-10-31T01:33:50;11.63;;;6.55;;
4986;SDS011;12674;51.500;7.552;2022-10-31T01:35:55;14.13;;;6.40;;
4986;SDS011;12674;51.500;7.552;2022-10-31T01:37:58;10.73;;;6.07;;
4986;SDS011;12674;51.500;7.552;2022-10-31T01:40:01;12.80;;;5.38;;
4986;SDS011;12674;51.500;7.552;2022-10-31T01:42:04;17.75;;;6.60;;
4986;SDS011;12674;51.500;7.552;2022-10-31T01:46:43;17.73;;;6.68;;
4986;SDS011;12674;51.500;7.552;2022-10-31T01:48:50;12.35;;;6.07;;
4986;SDS011;12674;51.500;7.552;2022-10-31T01:50:55;13.60;;;5.60;;
4986;SDS011;12674;51.500;7.552;2022-10-31T01:52:58;12.77;;;5.65;;
4986;SDS011;12674;51.500;7.552;2022-10-31T01:55:04;17.50;;;6.18;;
4986;SDS011;12674;51.500;7.552;2022-10-31T01:57:08;13.65;;;5.55;;
4986;SDS011;12674;51.500;7.552;2022-10-31T01:59:13;15.77;;;6.50;;
4986;SDS011;12674;51.500;7.552;2022-10-31T02:01:19;12.75;;;6.40;;
4986;SDS011;12674;51.500;7.552;2022-10-31T02:03:23;14.85;;;6.10;;
4986;SDS011;12674;51.500;7.552;2022-10-31T02:05:27;16.55;;;6.60;;
4986;SDS011;12674;51.500;7.552;2022-10-31T02:07:36;14.95;;;5.95;;
4986;SDS011;12674;51.500;7.552;2022-10-31T02:09:41;15.50;;;6.57;;
4986;SDS011;12674;51.500;7.552;2022-10-31T02:11:44;13.93;;;6.25;;
4986;SDS011;12674;51.500;7.552;2022-10-31T02:13:47;13.70;;;5.35;;
4986;SDS011;12674;51.500;7.552;2022-10-31T02:15:51;13.43;;;6.20;;
4986;SDS011;12674;51.500;7.552;2022-10-31T02:17:55;11.75;;;6.22;;
4986;SDS011;12674;51.500;7.552;2022-10-31T02:20:01;19.08;;;6.65;;
4986;SDS011;12674;51.500;7.552;2022-10-31T02:22:13;30.15;;;6.68;;
4986;SDS011;12674;51.500;7.552;2022-10-31T02:24:27;16.92;;;6.07;;
4986;SDS011;12674;51.500;7.552;2022-10-31T02:29:05;14.07;;;6.55;;
4986;SDS011;12674;51.500;7.552;2022-10-31T02:31:25;10.88;;;5.50;;
4986;SDS011;12674;51.500;7.552;2022-10-31T02:33:36;11.88;;;6.05;;
4986;SDS011;12674;51.500;7.552;2022-10-31T02:35:50;20.23;;;6.80;;
4986;SDS011;12674;51.500;7.552;2022-10-31T02:37:57;14.77;;;6.60;;
4986;SDS011;12674;51.500;7.552;2022-10-31T02:40:09;16.08;;;6.55;;
4986;SDS011;12674;51.500;7.552;2022-10-31T02:42:38;26.52;;;7.13;;
4986;SDS011;12674;51.500;7.552;2022-10-31T02:44:44;25.88;;;6.35;;
4986;SDS011;12674;51.500;7.552;2022-10-31T02:46:52;18.08;;;5.97;;
4986;SDS011;12674;51.500;7.552;2022-10-31T02:48:59;18.48;;;6.53;;
4986;SDS011;12674;51.500;7.552;2022-10-31T02:51:04;9.98;;;6.20;;
4986;SDS011;12674;51.500;7.552;2022-10-31T02:53:09;14.88;;;6.30;;
4986;SDS011;12674;51.500;7.552;2022-10-31T02:57:59;15.88;;;7.43;;
4986;SDS011;12674;51.500;7.552;2022-10-31T03:00:04;12.15;;;6.10;;
4986;SDS011;12674;51.500;7.552;2022-10-31T03:02:18;20.23;;;6.70;;
4986;SDS011;12674;51.500;7.552;2022-10-31T03:07:26;8.68;;;5.90;;
4986;SDS011;12674;51.500;7.552;2022-10-31T03:09:33;16.02;;;6.47;;
4986;SDS011;12674;51.500;7.552;2022-10-31T03:11:44;17.73;;;6.35;;
4986;SDS011;12674;51.500;7.552;2022-10-31T03:13:51;11.15;;;6.20;;
4986;SDS011;12674;51.500;7.552;2022-10-31T03:16:03;21.20;;;6.32;;
4986;SDS011;12674;51.500;7.552;2022-10-31T03:18:11;12.80;;;6.70;;
4986;SDS011;12674;51.500;7.552;2022-10-31T03:20:17;15.57;;;7.10;;
4986;SDS011;12674;51.500;7.552;2022-10-31T03:22:23;17.38;;;6.75;;
4986;SDS011;12674;51.500;7.552;2022-10-31T03:24:29;18.48;;;7.32;;
4986;SDS011;12674;51.500;7.552;2022-10-31T03:26:34;16.90;;;6.88;;
4986;SDS011;12674;51.500;7.552;2022-10-31T03:28:41;17.20;;;7.10;;
4986;SDS011;12674;51.500;7.552;2022-10-31T03:30:46;15.30;;;7.22;;
4986;SDS011;12674;51.500;7.552;2022-10-31T03:32:51;19.77;;;7.25;;
4986;SDS011;12674;51.500;7.552;2022-10-31T03:34:58;11.55;;;6.80;;
4986;SDS011;12674;51.500;7.552;2022-10-31T03:37:03;9.32;;;6.30;;
4986;SDS011;12674;51.500;7.552;2022-10-31T03:39:10;16.73;;;5.93;;
4986;SDS011;12674;51.500;7.552;2022-10-31T03:41:18;12.32;;;7.15;;
4986;SDS011;12674;51.500;7.552;2022-10-31T03:43:24;18.95;;;7.00;;
4986;SDS011;12674;51.500;7.552;2022-10-31T03:45:31;23.20;;;7.97;;
4986;SDS011;12674;51.500;7.552;2022-10-31T03:47:35;22.40;;;7.95;;
4986;SDS011;12674;51.500;7.552;2022-10-31T03:49:39;15.60;;;7.70;;
4986;SDS011;12674;51.500;7.552;2022-10-31T03:51:44;13.38;;;7.47;;
4986;SDS011;12674;51.500;7.552;2022-10-31T03:53:51;19.00;;;7.40;;
4986;SDS011;12674;51.500;7.552;2022-10-31T03:55:57;10.93;;;6.43;;
4986;SDS011;12674;51.500;7.552;2022-10-31T03:58:03;22.30;;;8.07;;
4986;SDS011;12674;51.500;7.552;2022-10-31T04:00:10;15.07;;;6.90;;
4986;SDS011;12674;51.500;7.552;2022-10-31T04:02:22;14.03;;;7.53;;
4986;SDS011;12674;51.500;7.552;2022-10-31T04:04:29;44.00;;;7.18;;
4986;SDS011;12674;51.500;7.552;2022-10-31T04:06:33;22.73;;;7.23;;
4986;SDS011;12674;51.500;7.552;2022-10-31T04:08:39;14.43;;;7.63;;
4986;SDS011;12674;51.500;7.552;2022-10-31T04:10:49;16.13;;;7.75;;
4986;SDS011;12674;51.500;7.552;2022-10-31T04:12:54;16.00;;;7.50;;
4986;SDS011;12674;51.500;7.552;2022-10-31T04:15:06;18.50;;;7.00;;
4986;SDS011;12674;51.500;7.552;2022-10-31T04:17:14;19.60;;;6.90;;
4986;SDS011;12674;51.500;7.552;2022-10-31T04:19:19;22.63;;;7.40;;
4986;SDS011;12674;51.500;7.552;2022-10-31T04:21:26;15.10;;;7.00;;
4986;SDS011;12674;51.500;7.552;2022-10-31T04:23:31;29.03;;;7.93;;
4986;SDS011;12674;51.500;7.552;2022-10-31T04:25:43;19.77;;;7.60;;
4986;SDS011;12674;51.500;7.552;2022-10-31T04:27:46;27.63;;;7.43;;
4986;SDS011;12674;51.500;7.552;2022-10-31T04:29:49;20.23;;;7.60;;
4986;SDS011;12674;51.500;7.552;2022-10-31T04:31:52;28.73;;;7.60;;
4986;SDS011;12674;51.500;7.552;2022-10-31T04:33:55;16.50;;;8.00;;
4986;SDS011;12674;51.500;7.552;2022-10-31T04:35:58;22.30;;;8.40;;
4986;SDS011;12674;51.500;7.552;2022-10-31T04:38:01;21.93;;;7.53;;
4986;SDS011;12674;51.500;7.552;2022-10-31T04:40:04;17.60;;;7.30;;
4986;SDS011;12674;51.500;7.552;2022-10-31T04:42:34;15.57;;;7.60;;
4986;SDS011;12674;51.500;7.552;2022-10-31T04:44:38;15.63;;;8.20;;
4986;SDS011;12674;51.500;7.552;2022-10-31T04:46:43;20.23;;;9.00;;
4986;SDS011;12674;51.500;7.552;2022-10-31T04:48:46;16.70;;;8.97;;
4986;SDS011;12674;51.500;7.552;2022-10-31T04:50:50;21.80;;;8.40;;
4986;SDS011;12674;51.500;7.552;2022-10-31T04:52:53;19.73;;;8.30;;
4986;SDS011;12674;51.500;7.552;2022-10-31T04:55:00;26.27;;;8.77;;
4986;SDS011;12674;51.500;7.552;2022-10-31T04:57:21;22.80;;;7.70;;
4986;SDS011;12674;51.500;7.552;2022-10-31T04:59:26;23.67;;;7.90;;
4986;SDS011;12674;51.500;7.552;2022-10-31T05:01:29;16.30;;;7.17;;
4986;SDS011;12674;51.500;7.552;2022-10-31T05:03:34;22.97;;;8.17;;
4986;SDS011;12674;51.500;7.552;2022-10-31T05:05:37;27.57;;;7.93;;
4986;SDS011;12674;51.500;7.552;2022-10-31T05:07:40;15.73;;;7.83;;
4986;SDS011;12674;51.500;7.552;2022-10-31T05:09:44;16.20;;;8.07;;
4986;SDS011;12674;51.500;7.552;2022-10-31T05:11:48;23.53;;;8.70;;
4986;SDS011;12674;51.500;7.552;2022-10-31T05:14:11;17.47;;;8.60;;
4986;SDS011;12674;51.500;7.552;2022-10-31T05:16:44;29.93;;;9.80;;
4986;SDS011;12674;51.500;7.552;2022-10-31T05:22:51;22.83;;;8.70;;
4986;SDS011;12674;51.500;7.552;2022-10-31T05:24:55;17.13;;;9.10;;
4986;SDS011;12674;51.500;7.552;2022-10-31T05:26:58;15.60;;;9.03;;
4986;SDS011;12674;51.500;7.552;2022-10-31T05:29:01;20.33;;;9.20;;
4986;SDS011;12674;51.500;7.552;2022-10-31T05:31:04;18.73;;;9.17;;
4986;SDS011;12674;51.500;7.552;2022-10-31T05:33:09;30.07;;;11.50;;
4986;SDS011;12674;51.500;7.552;2022-10-31T05:35:31;20.00;;;10.20;;
4986;SDS011;12674;51.500;7.552;2022-10-31T05:38:04;26.77;;;10.70;;
4986;SDS011;12674;51.500;7.552;2022-10-31T05:40:08;25.00;;;10.57;;
4986;SDS011;12674;51.500;7.552;2022-10-31T05:42:12;21.27;;;10.60;;
4986;SDS011;12674;51.500;7.552;2022-10-31T05:44:15;23.57;;;10.47;;
4986;SDS011;12674;51.500;7.552;2022-10-31T05:46:41;25.37;;;9.40;;
4986;SDS011;12674;51.500;7.552;2022-10-31T05:49:04;25.43;;;10.37;;
4986;SDS011;12674;51.500;7.552;2022-10-31T05:51:26;17.43;;;9.40;;
4986;SDS011;12674;51.500;7.552;2022-10-31T05:53:29;23.30;;;10.60;;
4986;SDS011;12674;51.500;7.552;2022-10-31T05:55:32;19.90;;;10.60;;
4986;SDS011;12674;51.500;7.552;2022-10-31T05:57:38;29.93;;;10.63;;
4986;SDS011;12674;51.500;7.552;2022-10-31T05:59:42;25.53;;;10.60;;
4986;SDS011;12674;51.500;7.552;2022-10-31T06:01:50;29.63;;;10.20;;
4986;SDS011;12674;51.500;7.552;2022-10-31T06:04:08;28.53;;;11.60;;
4986;SDS011;12674;51.500;7.552;2022-10-31T06:06:11;22.43;;;9.60;;
4986;SDS011;12674;51.500;7.552;2022-10-31T06:08:15;24.00;;;12.33;;
4986;SDS011;12674;51.500;7.552;2022-10-31T06:10:18;20.50;;;11.50;;
4986;SDS011;12674;51.500;7.552;2022-10-31T06:12:25;25.60;;;12.03;;
4986;SDS011;12674;51.500;7.552;2022-10-31T06:14:47;23.20;;;12.10;;
4986;SDS011;12674;51.500;7.552;2022-10-31T06:16:50;24.73;;;12.07;;
4986;SDS011;12674;51.500;7.552;2022-10-31T06:19:33;32.47;;;12.47;;
4986;SDS011;12674;51.500;7.552;2022-10-31T06:21:39;28.87;;;11.67;;
4986;SDS011;12674;51.500;7.552;2022-10-31T06:23:41;25.10;;;12.50;;
4986;SDS011;12674;51.500;7.552;2022-10-31T06:26:07;23.43;;;11.50;;
4986;SDS011;12674;51.500;7.552;2022-10-31T06:28:11;23.37;;;12.60;;
4986;SDS011;12674;51.500;7.552;2022-10-31T06:30:26;29.37;;;13.30;;
4986;SDS011;12674;51.500;7.552;2022-10-31T06:32:29;21.60;;;10.60;;
4986;SDS011;12674;51.500;7.552;2022-10-31T06:34:33;22.93;;;12.67;;
4986;SDS011;12674;51.500;7.552;2022-10-31T06:36:36;25.07;;;11.17;;
4986;SDS011;12674;51.500;7.552;2022-10-31T06:38:39;21.20;;;11.77;;
4986;SDS011;12674;51.500;7.552;2022-10-31T06:40:43;21.03;;;12.13;;
4986;SDS011;12674;51.500;7.552;2022-10-31T06:42:56;24.20;;;12.40;;
4986;SDS011;12674;51.500;7.552;2022-10-31T06:45:00;20.50;;;11.30;;
4986;SDS011;12674;51.500;7.552;2022-10-31T06:47:21;22.67;;;11.17;;
4986;SDS011;12674;51.500;7.552;2022-10-31T06:49:34;23.93;;;12.30;;
4986;SDS011;12674;51.500;7.552;2022-10-31T06:51:46;22.07;;;12.10;;
4986;SDS011;12674;51.500;7.552;2022-10-31T06:53:50;29.37;;;11.80;;
4986;SDS011;12674;51.500;7.552;2022-10-31T06:55:54;18.33;;;11.83;;
4986;SDS011;12674;51.500;7.552;2022-10-31T06:57:59;23.83;;;11.97;;
4986;SDS011;12674;51.500;7.552;2022-10-31T07:00:05;23.00;;;11.00;;
4986;SDS011;12674;51.500;7.552;2022-10-31T07:02:21;26.30;;;12.10;;
4986;SDS011;12674;51.500;7.552;2022-10-31T07:04:25;25.43;;;11.37;;
4986;SDS011;12674;51.500;7.552;2022-10-31T07:06:29;23.60;;;11.67;;
4986;SDS011;12674;51.500;7.552;2022-10-31T07:08:32;29.60;;;13.20;;
4986;SDS011;12674;51.500;7.552;2022-10-31T07:10:42;16.87;;;10.73;;
4986;SDS011;12674;51.500;7.552;2022-10-31T07:12:46;29.73;;;12.10;;
4986;SDS011;12674;51.500;7.552;2022-10-31T07:14:53;25.57;;;12.03;;
4986;SDS011;12674;51.500;7.552;2022-10-31T07:16:56;29.30;;;10.87;;
4986;SDS011;12674;51.500;7.552;2022-10-31T07:19:06;24.63;;;11.40;;
4986;SDS011;12674;51.500;7.552;2022-10-31T07:21:09;16.63;;;11.00;;
4986;SDS011;12674;51.500;7.552;2022-10-31T07:23:13;22.70;;;11.10;;
4986;SDS011;12674;51.500;7.552;2022-10-31T07:25:21;23.93;;;10.97;;
4986;SDS011;12674;51.500;7.552;2022-10-31T07:28:03;25.70;;;11.47;;
4986;SDS011;12674;51.500;7.552;2022-10-31T07:30:07;21.30;;;10.63;;
4986;SDS011;12674;51.500;7.552;2022-10-31T07:32:12;18.30;;;9.60;;
4986;SDS011;12674;51.500;7.552;2022-10-31T07:34:21;20.53;;;10.23;;
4986;SDS011;12674;51.500;7.552;2022-10-31T07:36:43;18.40;;;10.10;;
4986;SDS011;12674;51.500;7.552;2022-10-31T07:38:50;15.27;;;9.83;;
4986;SDS011;12674;51.500;7.552;2022-10-31T07:40:53;23.43;;;10.13;;
4986;SDS011;12674;51.500;7.552;2022-10-31T07:42:58;31.55;;;10.73;;
4986;SDS011;12674;51.500;7.552;2022-10-31T07:45:30;20.53;;;9.60;;
4986;SDS011;12674;51.500;7.552;2022-10-31T07:47:59;23.25;;;10.00;;
4986;SDS011;12674;51.500;7.552;2022-10-31T07:50:42;35.00;;;10.70;;
4986;SDS011;12674;51.500;7.552;2022-10-31T07:53:17;25.65;;;10.80;;
4986;SDS011;12674;51.500;7.552;2022-10-31T07:55:25;18.10;;;10.33;;
4986;SDS011;12674;51.500;7.552;2022-10-31T07:57:31;22.58;;;10.32;;
4986;SDS011;12674;51.500;7.552;2022-10-31T07:59:35;23.63;;;10.47;;
4986;SDS011;12674;51.500;7.552;2022-10-31T08:01:39;23.33;;;9.50;;
4986;SDS011;12674;51.500;7.552;2022-10-31T08:04:03;21.05;;;9.05;;
4986;SDS011;12674;51.500;7.552;2022-10-31T08:06:37;23.38;;;10.77;;
4986;SDS011;12674;51.500;7.552;2022-10-31T08:08:47;21.77;;;9.20;;
4986;SDS011;12674;51.500;7.552;2022-10-31T08:10:52;19.33;;;10.85;;
4986;SDS011;12674;51.500;7.552;2022-10-31T08:12:56;24.20;;;10.13;;
4986;SDS011;12674;51.500;7.552;2022-10-31T08:15:00;20.85;;;10.60;;
4986;SDS011;12674;51.500;7.552;2022-10-31T08:17:03;24.02;;;10.43;;
4986;SDS011;12674;51.500;7.552;2022-10-31T08:19:15;25.10;;;10.38;;
4986;SDS011;12674;51.500;7.552;2022-10-31T08:21:18;20.38;;;10.27;;
4986;SDS011;12674;51.500;7.552;2022-10-31T08:23:21;20.38;;;10.43;;
4986;SDS011;12674;51.500;7.552;2022-10-31T08:25:27;21.00;;;9.90;;
4986;SDS011;12674;51.500;7.552;2022-10-31T08:27:39;42.95;;;11.00;;
4986;SDS011;12674;51.500;7.552;2022-10-31T08:29:49;18.17;;;10.15;;
4986;SDS011;12674;51.500;7.552;2022-10-31T08:31:52;23.77;;;10.82;;
4986;SDS011;12674;51.500;7.552;2022-10-31T08:34:14;17.30;;;10.18;;
4986;SDS011;12674;51.500;7.552;2022-10-31T08:36:35;22.45;;;12.07;;
4986;SDS011;12674;51.500;7.552;2022-10-31T08:38:49;23.48;;;9.38;;
4986;SDS011;12674;51.500;7.552;2022-10-31T08:40:52;33.85;;;12.02;;
4986;SDS011;12674;51.500;7.552;2022-10-31T08:42:57;15.02;;;9.68;;
4986;SDS011;12674;51.500;7.552;2022-10-31T08:45:03;27.58;;;11.70;;
4986;SDS011;12674;51.500;7.552;2022-10-31T08:47:07;24.65;;;10.60;;
4986;SDS011;12674;51.500;7.552;2022-10-31T08:49:11;23.02;;;12.52;;
4986;SDS011;12674;51.500;7.552;2022-10-31T08:51:17;21.63;;;11.32;;
4986;SDS011;12674;51.500;7.552;2022-10-31T08:53:22;32.10;;;12.07;;
4986;SDS011;12674;51.500;7.552;2022-10-31T08:55:36;28.60;;;11.85;;
4986;SDS011;12674;51.500;7.552;2022-10-31T08:57:57;25.38;;;11.45;;
4986;SDS011;12674;51.500;7.552;2022-10-31T09:00:10;24.00;;;12.38;;
4986;SDS011;12674;51.500;7.552;2022-10-31T09:02:32;26.00;;;11.85;;
4986;SDS011;12674;51.500;7.552;2022-10-31T09:04:35;28.45;;;10.73;;
4986;SDS011;12674;51.500;7.552;2022-10-31T09:06:39;26.38;;;13.18;;
4986;SDS011;12674;51.500;7.552;2022-10-31T09:09:01;26.98;;;11.73;;
4986;SDS011;12674;51.500;7.552;2022-10-31T09:11:05;21.15;;;11.38;;
4986;SDS011;12674;51.500;7.552;2022-10-31T09:13:33;33.90;;;11.68;;
4986;SDS011;12674;51.500;7.552;2022-10-31T09:16:00;40.30;;;11.43;;
4986;SDS011;12674;51.500;7.552;2022-10-31T09:18:04;28.13;;;12.27;;
4986;SDS011;12674;51.500;7.552;2022-10-31T09:20:22;30.02;;;12.95;;
4986;SDS011;12674;51.500;7.552;2022-10-31T09:22:26;24.63;;;12.45;;
4986;SDS011;12674;51.500;7.552;2022-10-31T09:24:29;30.67;;;11.55;;
4986;SDS011;12674;51.500;7.552;2022-10-31T09:26:33;35.28;;;14.07;;
4986;SDS011;12674;51.500;7.552;2022-10-31T09:28:58;31.10;;;13.32;;
4986;SDS011;12674;51.500;7.552;2022-10-31T09:31:04;38.63;;;13.63;;
4986;SDS011;12674;51.500;7.552;2022-10-31T09:33:33;39.63;;;12.77;;
4986;SDS011;12674;51.500;7.552;2022-10-31T09:35:57;36.50;;;12.80;;
4986;SDS011;12674;51.500;7.552;2022-10-31T09:38:01;34.25;;;13.98;;
4986;SDS011;12674;51.500;7.552;2022-10-31T09:40:07;30.92;;;13.13;;
4986;SDS011;12674;51.500;7.552;2022-10-31T09:42:30;27.65;;;12.45;;
4986;SDS011;12674;51.500;7.552;2022-10-31T09:44:51;35.78;;;14.15;;
4986;SDS011;12674;51.500;7.552;2022-10-31T09:47:09;44.53;;;14.13;;
4986;SDS011;12674;51.500;7.552;2022-10-31T09:49:29;31.63;;;12.77;;
4986;SDS011;12674;51.500;7.552;2022-10-31T09:51:43;36.75;;;15.50;;
4986;SDS011;12674;51.500;7.552;2022-10-31T09:54:02;32.90;;;15.73;;
4986;SDS011;12674;51.500;7.552;2022-10-31T09:56:08;35.15;;;16.23;;
4986;SDS011;12674;51.500;7.552;2022-10-31T09:58:15;31.27;;;15.75;;
4986;SDS011;12674;51.500;7.552;2022-10-31T10:00:21;37.85;;;16.23;;
4986;SDS011;12674;51.500;7.552;2022-10-31T10:02:26;34.47;;;15.90;;
4986;SDS011;12674;51.500;7.552;2022-10-31T10:04:37;32.72;;;16.75;;
4986;SDS011;12674;51.500;7.552;2022-10-31T10:06:53;42.17;;;16.60;;
4986;SDS011;12674;51.500;7.552;2022-10-31T10:09:14;35.85;;;16.48;;
4986;SDS011;12674;51.500;7.552;2022-10-31T10:11:43;35.78;;;16.33;;
4986;SDS011;12674;51.500;7.552;2022-10-31T10:14:04;40.92;;;17.02;;
4986;SDS011;12674;51.500;7.552;2022-10-31T10:16:19;42.05;;;17.60;;
4986;SDS011;12674;51.500;7.552;2022-10-31T10:18:38;41.45;;;17.48;;
4986;SDS011;12674;51.500;7.552;2022-10-31T10:20:52;41.53;;;16.77;;
4986;SDS011;12674;51.500;7.552;2022-10-31T10:23:13;41.25;;;15.90;;
4986;SDS011;12674;51.500;7.552;2022-10-31T10:25:28;35.80;;;16.05;;
4986;SDS011;12674;51.500;7.552;2022-10-31T10:27:42;33.50;;;15.90;;
4986;SDS011;12674;51.500;7.552;2022-10-31T10:29:53;41.28;;;17.67;;
4986;SDS011;12674;51.500;7.552;2022-10-31T10:32:04;38.70;;;16.58;;
4986;SDS011;12674;51.500;7.552;2022-10-31T10:34:16;26.45;;;16.52;;
4986;SDS011;12674;51.500;7.552;2022-10-31T10:36:22;32.20;;;16.85;;
4986;SDS011;12674;51.500;7.552;2022-10-31T10:38:30;40.78;;;17.38;;
4986;SDS011;12674;51.500;7.552;2022-10-31T10:40:37;33.10;;;16.52;;
4986;SDS011;12674;51.500;7.552;2022-10-31T10:42:40;35.85;;;16.92;;
4986;SDS011;12674;51.500;7.552;2022-10-31T10:45:06;32.53;;;17.38;;
4986;SDS011;12674;51.500;7.552;2022-10-31T10:47:36;35.50;;;16.63;;
4986;SDS011;12674;51.500;7.552;2022-10-31T10:49:44;29.20;;;15.60;;
4986;SDS011;12674;51.500;7.552;2022-10-31T10:51:54;43.67;;;18.00;;
4986;SDS011;12674;51.500;7.552;2022-10-31T10:54:26;31.65;;;17.08;;
4986;SDS011;12674;51.500;7.552;2022-10-31T10:56:44;31.08;;;16.08;;
4986;SDS011;12674;51.500;7.552;2022-10-31T10:58:53;28.67;;;15.70;;
4986;SDS011;12674;51.500;7.552;2022-10-31T11:00:58;38.05;;;16.17;;
4986;SDS011;12674;51.500;7.552;2022-10-31T11:03:02;36.55;;;14.95;;
4986;SDS011;12674;51.500;7.552;2022-10-31T11:05:21;33.88;;;16.17;;
4986;SDS011;12674;51.500;7.552;2022-10-31T11:07:36;38.33;;;16.02;;
4986;SDS011;12674;51.500;7.552;2022-10-31T11:09:40;37.88;;;15.52;;
4986;SDS011;12674;51.500;7.552;2022-10-31T11:11:43;32.83;;;17.13;;
4986;SDS011;12674;51.500;7.552;2022-10-31T11:13:47;36.15;;;14.95;;
4986;SDS011;12674;51.500;7.552;2022-10-31T11:15:59;34.22;;;13.57;;
4986;SDS011;12674;51.500;7.552;2022-10-31T11:18:05;27.90;;;14.70;;
4986;SDS011;12674;51.500;7.552;2022-10-31T11:20:22;35.65;;;15.15;;
4986;SDS011;12674;51.500;7.552;2022-10-31T11:22:29;31.15;;;14.88;;
4986;SDS011;12674;51.500;7.552;2022-10-31T11:24:36;31.75;;;14.60;;
4986;SDS011;12674;51.500;7.552;2022-10-31T11:26:41;30.75;;;15.10;;
4986;SDS011;12674;51.500;7.552;2022-10-31T11:28:44;27.52;;;15.38;;
4986;SDS011;12674;51.500;7.552;2022-10-31T11:30:59;36.13;;;15.95;;
4986;SDS011;12674;51.500;7.552;2022-10-31T11:33:04;36.08;;;14.65;;
4986;SDS011;12674;51.500;7.552;2022-10-31T11:35:08;39.58;;;15.60;;
4986;SDS011;12674;51.500;7.552;2022-10-31T11:37:14;32.10;;;15.38;;
4986;SDS011;12674;51.500;7.552;2022-10-31T11:39:23;27.33;;;13.40;;
4986;SDS011;12674;51.500;7.552;2022-10-31T11:41:28;34.28;;;15.27;;
4986;SDS011;12674;51.500;7.552;2022-10-31T11:43:33;29.88;;;15.35;;
4986;SDS011;12674;51.500;7.552;2022-10-31T11:45:36;32.60;;;16.02;;
4986;SDS011;12674;51.500;7.552;2022-10-31T11:47:40;34.30;;;15.48;;
4986;SDS011;12674;51.500;7.552;2022-10-31T11:49:46;35.65;;;14.05;;
4986;SDS011;12674;51.500;7.552;2022-10-31T11:51:51;34.53;;;12.30;;
4986;SDS011;12674;51.500;7.552;2022-10-31T11:53:56;33.92;;;13.13;;
4986;SDS011;12674;51.500;7.552;2022-10-31T11:56:05;24.55;;;12.85;;
4986;SDS011;12674;51.500;7.552;2022-10-31T11:58:19;29.52;;;12.02;;
4986;SDS011;12674;51.500;7.552;2022-10-31T12:00:24;27.85;;;12.32;;
4986;SDS011;12674;51.500;7.552;2022-10-31T12:02:33;23.60;;;11.40;;
4986;SDS011;12674;51.500;7.552;2022-10-31T12:04:37;22.65;;;11.13;;
4986;SDS011;12674;51.500;7.552;2022-10-31T12:06:44;24.08;;;10.75;;
4986;SDS011;12674;51.500;7.552;2022-10-31T12:08:48;24.50;;;11.88;;
4986;SDS011;12674;51.500;7.552;2022-10-31T12:10:54;30.58;;;13.90;;
4986;SDS011;12674;51.500;7.552;2022-10-31T12:13:03;29.38;;;12.05;;
4986;SDS011;12674;51.500;7.552;2022-10-31T12:15:18;28.50;;;11.52;;
4986;SDS011;12674;51.500;7.552;2022-10-31T12:17:34;24.40;;;12.95;;
4986;SDS011;12674;51.500;7.552;2022-10-31T12:19:42;35.17;;;12.20;;
4986;SDS011;12674;51.500;7.552;2022-10-31T12:21:57;18.45;;;10.00;;
4986;SDS011;12674;51.500;7.552;2022-10-31T12:24:08;32.30;;;11.90;;
4986;SDS011;12674;51.500;7.552;2022-10-31T12:26:18;26.58;;;10.65;;
4986;SDS011;12674;51.500;7.552;2022-10-31T12:28:39;22.23;;;11.00;;
4986;SDS011;12674;51.500;7.552;2022-10-31T12:30:57;27.88;;;9.65;;
4986;SDS011;12674;51.500;7.552;2022-10-31T12:33:13;21.75;;;9.48;;
4986;SDS011;12674;51.500;7.552;2022-10-31T12:35:39;26.15;;;9.25;;
4986;SDS011;12674;51.500;7.552;2022-10-31T12:37:50;22.38;;;8.85;;
4986;SDS011;12674;51.500;7.552;2022-10-31T12:40:04;22.63;;;10.75;;
4986;SDS011;12674;51.500;7.552;2022-10-31T12:42:17;22.13;;;10.55;;
4986;SDS011;12674;51.500;7.552;2022-10-31T12:44:38;33.53;;;9.20;;
4986;SDS011;12674;51.500;7.552;2022-10-31T12:47:04;26.13;;;11.68;;
4986;SDS011;12674;51.500;7.552;2022-10-31T12:49:20;20.52;;;9.68;;
4986;SDS011;12674;51.500;7.552;2022-10-31T12:51:33;29.60;;;8.60;;
4986;SDS011;12674;51.500;7.552;2022-10-31T12:53:47;20.27;;;7.95;;
4986;SDS011;12674;51.500;7.552;2022-10-31T12:56:11;21.33;;;8.20;;
4986;SDS011;12674;51.500;7.552;2022-10-31T12:58:21;22.00;;;8.40;;
4986;SDS011;12674;51.500;7.552;2022-10-31T13:00:27;19.55;;;8.23;;
4986;SDS011;12674;51.500;7.552;2022-10-31T13:02:32;22.13;;;7.90;;
4986;SDS011;12674;51.500;7.552;2022-10-31T13:04:41;33.42;;;7.90;;
4986;SDS011;12674;51.500;7.552;2022-10-31T13:06:47;17.17;;;8.10;;